sensor_id;sensor_type;location;lat;lon;timestamp;temperature;humidity
41256;DHT22;26989;45.524;10.938;2024-03-08T00:02:05;8.60;99.90
41256;DHT22;26989;45.524;10.938;2024-03-08T00:04:32;8.50;99.90
41256;DHT22;26989;45.524;10.938;2024-03-08T00:06:59;8.50;99.90
41256;DHT22;26989;45.524;10.938;2024-03-08T00:09:26;8.60;99.90
41256;DHT22;26989;45.524;10.938;2024-03-08T00:11:54;8.70;99.90
41256;DHT22;26989;45.524;10.938;2024-03-08T00:14:20;8.70;99.90
41256;DHT22;26989;45.524;10.938;2024-03-08T00:16:48;8.60;99.90
41256;DHT22;26989;45.524;10.938;2024-03-08T00:19:15;8.50;99.90
41256;DHT22;26989;45.524;10.938;2024-03-08T00:21:42;8.50;99.90
41256;DHT22;26989;45.524;10.938;2024-03-08T00:24:09;8.50;99.90
41256;DHT22;26989;45.524;10.938;2024-03-08T00:26:36;8.40;99.90
41256;DHT22;26989;45.524;10.938;2024-03-08T00:29:03;8.50;99.90
41256;DHT22;26989;45.524;10.938;2024-03-08T00:31:30;8.50;99.90
41256;DHT22;26989;45.524;10.938;2024-03-08T00:33:57;8.40;99.90
41256;DHT22;26989;45.524;10.938;2024-03-08T00:36:24;8.50;99.90
41256;DHT22;26989;45.524;10.938;2024-03-08T00:38:51;8.60;99.90
41256;DHT22;26989;45.524;10.938;2024-03-08T00:41:18;8.70;99.90
41256;DHT22;26989;45.524;10.938;2024-03-08T00:43:45;8.80;99.90
41256;DHT22;26989;45.524;10.938;2024-03-08T00:46:14;8.70;99.90
41256;DHT22;26989;45.524;10.938;2024-03-08T00:48:41;8.70;99.90
41256;DHT22;26989;45.524;10.938;2024-03-08T00:51:10;8.80;99.90
41256;DHT22;26989;45.524;10.938;2024-03-08T00:53:37;8.90;99.90
41256;DHT22;26989;45.524;10.938;2024-03-08T00:56:04;8.90;99.90
41256;DHT22;26989;45.524;10.938;2024-03-08T00:58:31;9.00;99.90
41256;DHT22;26989;45.524;10.938;2024-03-08T01:00:58;8.90;99.90
41256;DHT22;26989;45.524;10.938;2024-03-08T01:03:26;8.90;99.90
41256;DHT22;26989;45.524;10.938;2024-03-08T01:05:53;9.00;99.90
41256;DHT22;26989;45.524;10.938;2024-03-08T01:08:20;8.90;99.90
41256;DHT22;26989;45.524;10.938;2024-03-08T01:10:47;8.70;99.90
41256;DHT22;26989;45.524;10.938;2024-03-08T01:13:14;8.90;99.90
41256;DHT22;26989;45.524;10.938;2024-03-08T01:15:41;8.80;99.90
41256;DHT22;26989;45.524;10.938;2024-03-08T01:18:08;8.70;99.90
41256;DHT22;26989;45.524;10.938;2024-03-08T01:20:35;8.80;99.90
41256;DHT22;26989;45.524;10.938;2024-03-08T01:23:03;8.70;99.90
41256;DHT22;26989;45.524;10.938;2024-03-08T01:25:33;8.90;99.90
41256;DHT22;26989;45.524;10.938;2024-03-08T01:28:00;8.80;99.90
41256;DHT22;26989;45.524;10.938;2024-03-08T01:30:26;8.80;99.90
41256;DHT22;26989;45.524;10.938;2024-03-08T01:32:53;8.70;99.90
41256;DHT22;26989;45.524;10.938;2024-03-08T01:35:20;8.70;99.90
41256;DHT22;26989;45.524;10.938;2024-03-08T01:37:49;8.80;99.90
41256;DHT22;26989;45.524;10.938;2024-03-08T01:40:16;8.70;99.90
41256;DHT22;26989;45.524;10.938;2024-03-08T01:42:43;8.70;99.90
41256;DHT22;26989;45.524;10.938;2024-03-08T01:45:11;8.70;99.90
41256;DHT22;26989;45.524;10.938;2024-03-08T01:47:40;8.70;99.90
41256;DHT22;26989;45.524;10.938;2024-03-08T01:50:07;8.70;99.90
41256;DHT22;26989;45.524;10.938;2024-03-08T01:52:35;8.70;99.90
41256;DHT22;26989;45.524;10.938;2024-03-08T01:55:04;8.70;99.90
41256;DHT22;26989;45.524;10.938;2024-03-08T01:57:33;8.80;99.90
41256;DHT22;26989;45.524;10.938;2024-03-08T02:00:02;8.90;99.90
41256;DHT22;26989;45.524;10.938;2024-03-08T02:02:32;8.90;99.90
41256;DHT22;26989;45.524;10.938;2024-03-08T02:05:00;8.90;99.90
41256;DHT22;26989;45.524;10.938;2024-03-08T02:07:27;9.00;99.90
41256;DHT22;26989;45.524;10.938;2024-03-08T02:09:54;9.00;99.90
41256;DHT22;26989;45.524;10.938;2024-03-08T02:12:21;9.00;99.90
41256;DHT22;26989;45.524;10.938;2024-03-08T02:14:48;8.90;99.90
41256;DHT22;26989;45.524;10.938;2024-03-08T02:17:15;8.90;99.90
41256;DHT22;26989;45.524;10.938;2024-03-08T02:19:42;8.90;99.90
41256;DHT22;26989;45.524;10.938;2024-03-08T02:22:08;8.90;99.90
41256;DHT22;26989;45.524;10.938;2024-03-08T02:24:36;8.90;99.90
41256;DHT22;26989;45.524;10.938;2024-03-08T02:27:02;8.80;99.90
41256;DHT22;26989;45.524;10.938;2024-03-08T02:29:30;8.70;99.90
41256;DHT22;26989;45.524;10.938;2024-03-08T02:31:58;8.80;99.90
41256;DHT22;26989;45.524;10.938;2024-03-08T02:34:25;8.80;99.90
41256;DHT22;26989;45.524;10.938;2024-03-08T02:36:52;8.90;99.90
41256;DHT22;26989;45.524;10.938;2024-03-08T02:39:18;8.80;99.90
41256;DHT22;26989;45.524;10.938;2024-03-08T02:41:46;8.70;99.90
41256;DHT22;26989;45.524;10.938;2024-03-08T02:44:13;8.60;99.90
41256;DHT22;26989;45.524;10.938;2024-03-08T02:46:41;8.60;99.90
41256;DHT22;26989;45.524;10.938;2024-03-08T02:49:08;8.60;99.90
41256;DHT22;26989;45.524;10.938;2024-03-08T02:51:35;8.60;99.90
41256;DHT22;26989;45.524;10.938;2024-03-08T02:54:02;8.60;99.90
41256;DHT22;26989;45.524;10.938;2024-03-08T02:56:30;8.60;99.90
41256;DHT22;26989;45.524;10.938;2024-03-08T02:59:01;8.50;99.90
41256;DHT22;26989;45.524;10.938;2024-03-08T03:01:29;8.50;99.90
41256;DHT22;26989;45.524;10.938;2024-03-08T03:03:56;8.40;99.90
41256;DHT22;26989;45.524;10.938;2024-03-08T03:06:23;8.40;99.90
41256;DHT22;26989;45.524;10.938;2024-03-08T03:08:50;8.40;99.90
41256;DHT22;26989;45.524;10.938;2024-03-08T03:11:18;8.40;99.90
41256;DHT22;26989;45.524;10.938;2024-03-08T03:13:45;8.40;99.90
41256;DHT22;26989;45.524;10.938;2024-03-08T03:16:18;8.30;99.90
41256;DHT22;26989;45.524;10.938;2024-03-08T03:18:47;8.40;99.90
41256;DHT22;26989;45.524;10.938;2024-03-08T03:21:14;8.40;99.90
41256;DHT22;26989;45.524;10.938;2024-03-08T03:23:41;8.40;99.90
41256;DHT22;26989;45.524;10.938;2024-03-08T03:26:11;8.40;99.90
41256;DHT22;26989;45.524;10.938;2024-03-08T03:28:39;8.60;99.90
41256;DHT22;26989;45.524;10.938;2024-03-08T03:31:07;8.70;99.90
41256;DHT22;26989;45.524;10.938;2024-03-08T03:33:36;8.80;99.90
41256;DHT22;26989;45.524;10.938;2024-03-08T03:36:04;8.70;99.90
41256;DHT22;26989;45.524;10.938;2024-03-08T03:38:32;8.60;99.90
41256;DHT22;26989;45.524;10.938;2024-03-08T03:41:00;8.50;99.90
41256;DHT22;26989;45.524;10.938;2024-03-08T03:43:37;8.50;99.90
41256;DHT22;26989;45.524;10.938;2024-03-08T03:46:07;8.50;99.90
41256;DHT22;26989;45.524;10.938;2024-03-08T03:48:34;8.70;99.90
41256;DHT22;26989;45.524;10.938;2024-03-08T03:51:01;8.70;99.90
41256;DHT22;26989;45.524;10.938;2024-03-08T03:53:28;8.70;99.90
41256;DHT22;26989;45.524;10.938;2024-03-08T03:55:55;8.70;99.90
41256;DHT22;26989;45.524;10.938;2024-03-08T03:58:21;8.70;99.90
41256;DHT22;26989;45.524;10.938;2024-03-08T04:00:49;8.60;99.90
41256;DHT22;26989;45.524;10.938;2024-03-08T04:03:16;8.50;99.90
41256;DHT22;26989;45.524;10.938;2024-03-08T04:05:43;8.60;99.90
41256;DHT22;26989;45.524;10.938;2024-03-08T04:08:10;8.50;99.90
41256;DHT22;26989;45.524;10.938;2024-03-08T04:10:37;8.50;99.90
41256;DHT22;26989;45.524;10.938;2024-03-08T04:13:04;8.50;99.90
41256;DHT22;26989;45.524;10.938;2024-03-08T04:15:31;8.60;99.90
41256;DHT22;26989;45.524;10.938;2024-03-08T04:17:58;8.70;99.90
41256;DHT22;26989;45.524;10.938;2024-03-08T04:20:27;8.70;99.90
41256;DHT22;26989;45.524;10.938;2024-03-08T04:22:54;8.70;99.90
41256;DHT22;26989;45.524;10.938;2024-03-08T04:25:21;8.80;99.90
41256;DHT22;26989;45.524;10.938;2024-03-08T04:27:48;8.70;99.90
41256;DHT22;26989;45.524;10.938;2024-03-08T04:30:16;8.80;99.90
41256;DHT22;26989;45.524;10.938;2024-03-08T04:32:44;8.80;99.90
41256;DHT22;26989;45.524;10.938;2024-03-08T04:35:11;8.80;99.90
41256;DHT22;26989;45.524;10.938;2024-03-08T04:37:39;8.80;99.90
41256;DHT22;26989;45.524;10.938;2024-03-08T04:40:06;8.80;99.90
41256;DHT22;26989;45.524;10.938;2024-03-08T04:42:33;8.80;99.90
41256;DHT22;26989;45.524;10.938;2024-03-08T04:45:01;8.80;99.90
41256;DHT22;26989;45.524;10.938;2024-03-08T04:47:29;8.70;99.90
41256;DHT22;26989;45.524;10.938;2024-03-08T04:49:55;8.80;99.90
41256;DHT22;26989;45.524;10.938;2024-03-08T04:52:23;8.80;99.90
41256;DHT22;26989;45.524;10.938;2024-03-08T04:54:50;9.00;99.90
41256;DHT22;26989;45.524;10.938;2024-03-08T04:57:17;8.90;99.90
41256;DHT22;26989;45.524;10.938;2024-03-08T04:59:45;8.90;99.90
41256;DHT22;26989;45.524;10.938;2024-03-08T05:02:13;8.90;99.90
41256;DHT22;26989;45.524;10.938;2024-03-08T05:04:39;8.90;99.90
41256;DHT22;26989;45.524;10.938;2024-03-08T05:07:07;8.90;99.90
41256;DHT22;26989;45.524;10.938;2024-03-08T05:09:34;8.90;99.90
41256;DHT22;26989;45.524;10.938;2024-03-08T05:12:03;8.90;99.90
41256;DHT22;26989;45.524;10.938;2024-03-08T05:14:30;8.90;99.90
41256;DHT22;26989;45.524;10.938;2024-03-08T05:16:57;8.90;99.90
41256;DHT22;26989;45.524;10.938;2024-03-08T05:19:23;9.00;99.90
41256;DHT22;26989;45.524;10.938;2024-03-08T05:21:51;8.90;99.90
41256;DHT22;26989;45.524;10.938;2024-03-08T05:24:18;8.90;99.90
41256;DHT22;26989;45.524;10.938;2024-03-08T05:26:46;8.90;99.90
41256;DHT22;26989;45.524;10.938;2024-03-08T05:29:13;8.80;99.90
41256;DHT22;26989;45.524;10.938;2024-03-08T05:31:51;8.80;99.90
41256;DHT22;26989;45.524;10.938;2024-03-08T05:34:19;8.80;99.90
41256;DHT22;26989;45.524;10.938;2024-03-08T05:36:50;8.80;99.90
41256;DHT22;26989;45.524;10.938;2024-03-08T05:39:18;8.70;99.90
41256;DHT22;26989;45.524;10.938;2024-03-08T05:41:47;8.70;99.90
41256;DHT22;26989;45.524;10.938;2024-03-08T05:44:14;8.70;99.90
41256;DHT22;26989;45.524;10.938;2024-03-08T05:46:44;8.60;99.90
41256;DHT22;26989;45.524;10.938;2024-03-08T05:49:11;8.70;99.90
41256;DHT22;26989;45.524;10.938;2024-03-08T05:51:40;8.70;99.90
41256;DHT22;26989;45.524;10.938;2024-03-08T05:54:09;8.60;99.90
41256;DHT22;26989;45.524;10.938;2024-03-08T05:56:43;8.70;99.90
41256;DHT22;26989;45.524;10.938;2024-03-08T05:59:12;8.70;99.90
41256;DHT22;26989;45.524;10.938;2024-03-08T06:01:40;8.70;99.90
41256;DHT22;26989;45.524;10.938;2024-03-08T06:04:09;8.70;99.90
41256;DHT22;26989;45.524;10.938;2024-03-08T06:06:38;8.70;99.90
41256;DHT22;26989;45.524;10.938;2024-03-08T06:09:06;8.70;99.90
41256;DHT22;26989;45.524;10.938;2024-03-08T06:11:39;8.70;99.90
41256;DHT22;26989;45.524;10.938;2024-03-08T06:14:06;8.80;99.90
41256;DHT22;26989;45.524;10.938;2024-03-08T06:16:33;8.80;99.90
41256;DHT22;26989;45.524;10.938;2024-03-08T06:19:00;8.70;99.90
41256;DHT22;26989;45.524;10.938;2024-03-08T06:21:29;8.60;99.90
41256;DHT22;26989;45.524;10.938;2024-03-08T06:23:56;8.80;99.90
41256;DHT22;26989;45.524;10.938;2024-03-08T06:26:25;8.80;99.90
41256;DHT22;26989;45.524;10.938;2024-03-08T06:28:56;8.80;99.90
41256;DHT22;26989;45.524;10.938;2024-03-08T06:31:23;8.70;99.90
41256;DHT22;26989;45.524;10.938;2024-03-08T06:33:50;8.70;99.90
41256;DHT22;26989;45.524;10.938;2024-03-08T06:36:18;8.80;99.90
41256;DHT22;26989;45.524;10.938;2024-03-08T06:38:51;8.70;99.90
41256;DHT22;26989;45.524;10.938;2024-03-08T06:41:18;8.70;99.90
41256;DHT22;26989;45.524;10.938;2024-03-08T06:43:47;8.80;99.90
41256;DHT22;26989;45.524;10.938;2024-03-08T06:46:15;8.90;99.90
41256;DHT22;26989;45.524;10.938;2024-03-08T06:48:42;8.90;99.90
41256;DHT22;26989;45.524;10.938;2024-03-08T06:51:10;8.90;99.90
41256;DHT22;26989;45.524;10.938;2024-03-08T06:53:38;8.90;99.90
41256;DHT22;26989;45.524;10.938;2024-03-08T06:56:08;8.90;99.90
41256;DHT22;26989;45.524;10.938;2024-03-08T06:58:35;8.90;99.90
41256;DHT22;26989;45.524;10.938;2024-03-08T07:01:02;9.00;99.90
41256;DHT22;26989;45.524;10.938;2024-03-08T07:03:31;9.30;99.90
41256;DHT22;26989;45.524;10.938;2024-03-08T07:05:59;9.40;99.90
41256;DHT22;26989;45.524;10.938;2024-03-08T07:08:28;9.50;99.90
41256;DHT22;26989;45.524;10.938;2024-03-08T07:10:56;9.70;99.90
41256;DHT22;26989;45.524;10.938;2024-03-08T07:13:26;9.90;99.90
41256;DHT22;26989;45.524;10.938;2024-03-08T07:15:56;9.90;99.90
41256;DHT22;26989;45.524;10.938;2024-03-08T07:18:23;9.80;99.90
41256;DHT22;26989;45.524;10.938;2024-03-08T07:20:51;9.70;99.90
41256;DHT22;26989;45.524;10.938;2024-03-08T07:23:18;9.80;99.90
41256;DHT22;26989;45.524;10.938;2024-03-08T07:26:04;9.70;99.90
41256;DHT22;26989;45.524;10.938;2024-03-08T07:28:31;9.70;99.90
41256;DHT22;26989;45.524;10.938;2024-03-08T07:30:58;9.90;99.90
41256;DHT22;26989;45.524;10.938;2024-03-08T07:33:44;10.00;99.90
41256;DHT22;26989;45.524;10.938;2024-03-08T07:36:11;9.80;99.90
41256;DHT22;26989;45.524;10.938;2024-03-08T07:38:38;9.70;99.90
41256;DHT22;26989;45.524;10.938;2024-03-08T07:41:06;9.70;99.90
41256;DHT22;26989;45.524;10.938;2024-03-08T07:43:33;9.80;99.90
41256;DHT22;26989;45.524;10.938;2024-03-08T07:46:04;9.90;99.90
41256;DHT22;26989;45.524;10.938;2024-03-08T07:48:45;9.80;99.90
41256;DHT22;26989;45.524;10.938;2024-03-08T07:51:16;9.80;99.90
41256;DHT22;26989;45.524;10.938;2024-03-08T07:53:44;9.80;99.90
41256;DHT22;26989;45.524;10.938;2024-03-08T07:56:12;9.80;99.90
41256;DHT22;26989;45.524;10.938;2024-03-08T07:58:44;9.70;99.90
41256;DHT22;26989;45.524;10.938;2024-03-08T08:01:20;9.70;99.90
41256;DHT22;26989;45.524;10.938;2024-03-08T08:03:51;9.60;99.90
41256;DHT22;26989;45.524;10.938;2024-03-08T08:06:18;9.50;99.90
41256;DHT22;26989;45.524;10.938;2024-03-08T08:08:48;9.50;99.90
41256;DHT22;26989;45.524;10.938;2024-03-08T08:11:15;9.50;99.90
41256;DHT22;26989;45.524;10.938;2024-03-08T08:13:56;9.50;99.90
41256;DHT22;26989;45.524;10.938;2024-03-08T08:16:24;9.60;99.90
41256;DHT22;26989;45.524;10.938;2024-03-08T08:18:52;9.70;99.90
41256;DHT22;26989;45.524;10.938;2024-03-08T08:21:24;9.70;99.90
41256;DHT22;26989;45.524;10.938;2024-03-08T08:23:53;9.60;99.90
41256;DHT22;26989;45.524;10.938;2024-03-08T08:26:23;9.50;99.90
41256;DHT22;26989;45.524;10.938;2024-03-08T08:28:53;9.60;99.90
41256;DHT22;26989;45.524;10.938;2024-03-08T08:31:21;9.60;99.90
41256;DHT22;26989;45.524;10.938;2024-03-08T08:33:48;9.70;99.90
41256;DHT22;26989;45.524;10.938;2024-03-08T08:36:16;9.60;99.90
41256;DHT22;26989;45.524;10.938;2024-03-08T08:38:43;9.50;99.90
41256;DHT22;26989;45.524;10.938;2024-03-08T08:41:14;9.50;99.90
41256;DHT22;26989;45.524;10.938;2024-03-08T08:43:43;9.50;99.90
41256;DHT22;26989;45.524;10.938;2024-03-08T08:46:29;9.80;99.90
41256;DHT22;26989;45.524;10.938;2024-03-08T08:48:58;9.70;99.90
41256;DHT22;26989;45.524;10.938;2024-03-08T08:51:31;9.70;99.90
41256;DHT22;26989;45.524;10.938;2024-03-08T08:54:02;9.80;99.90
41256;DHT22;26989;45.524;10.938;2024-03-08T08:56:29;10.00;99.90
41256;DHT22;26989;45.524;10.938;2024-03-08T08:58:56;10.10;99.90
41256;DHT22;26989;45.524;10.938;2024-03-08T09:01:24;10.00;99.90
41256;DHT22;26989;45.524;10.938;2024-03-08T09:03:51;9.90;99.90
41256;DHT22;26989;45.524;10.938;2024-03-08T09:06:19;10.00;99.90
41256;DHT22;26989;45.524;10.938;2024-03-08T09:08:46;10.00;99.90
41256;DHT22;26989;45.524;10.938;2024-03-08T09:11:16;10.10;99.90
41256;DHT22;26989;45.524;10.938;2024-03-08T09:13:46;10.10;99.90
41256;DHT22;26989;45.524;10.938;2024-03-08T09:16:13;10.00;99.90
41256;DHT22;26989;45.524;10.938;2024-03-08T09:18:40;10.20;99.90
41256;DHT22;26989;45.524;10.938;2024-03-08T09:21:08;10.30;99.90
41256;DHT22;26989;45.524;10.938;2024-03-08T09:23:36;10.20;99.90
41256;DHT22;26989;45.524;10.938;2024-03-08T09:26:04;10.20;99.90
41256;DHT22;26989;45.524;10.938;2024-03-08T09:28:39;10.30;99.90
41256;DHT22;26989;45.524;10.938;2024-03-08T09:31:06;10.10;99.90
41256;DHT22;26989;45.524;10.938;2024-03-08T09:33:33;10.10;99.90
41256;DHT22;26989;45.524;10.938;2024-03-08T09:36:02;9.80;99.90
41256;DHT22;26989;45.524;10.938;2024-03-08T09:38:30;9.80;99.90
41256;DHT22;26989;45.524;10.938;2024-03-08T09:40:59;9.90;99.90
41256;DHT22;26989;45.524;10.938;2024-03-08T09:43:28;10.10;99.90
41256;DHT22;26989;45.524;10.938;2024-03-08T09:45:55;10.10;99.90
41256;DHT22;26989;45.524;10.938;2024-03-08T09:48:24;10.00;99.90
41256;DHT22;26989;45.524;10.938;2024-03-08T09:50:52;10.00;99.90
41256;DHT22;26989;45.524;10.938;2024-03-08T09:53:20;10.10;99.90
41256;DHT22;26989;45.524;10.938;2024-03-08T09:55:49;10.10;99.90
41256;DHT22;26989;45.524;10.938;2024-03-08T09:58:20;10.00;99.90
41256;DHT22;26989;45.524;10.938;2024-03-08T10:01:00;10.10;99.90
41256;DHT22;26989;45.524;10.938;2024-03-08T10:03:31;10.20;99.90
41256;DHT22;26989;45.524;10.938;2024-03-08T10:06:04;10.30;99.90
41256;DHT22;26989;45.524;10.938;2024-03-08T10:08:38;10.00;99.90
41256;DHT22;26989;45.524;10.938;2024-03-08T10:11:10;10.20;99.90
41256;DHT22;26989;45.524;10.938;2024-03-08T10:13:48;10.20;99.90
41256;DHT22;26989;45.524;10.938;2024-03-08T10:16:27;10.10;99.90
41256;DHT22;26989;45.524;10.938;2024-03-08T10:19:01;10.10;99.90
41256;DHT22;26989;45.524;10.938;2024-03-08T10:21:30;10.10;99.90
41256;DHT22;26989;45.524;10.938;2024-03-08T10:24:13;10.10;99.90
41256;DHT22;26989;45.524;10.938;2024-03-08T10:26:40;10.20;99.90
41256;DHT22;26989;45.524;10.938;2024-03-08T10:29:19;10.20;99.90
41256;DHT22;26989;45.524;10.938;2024-03-08T10:31:55;10.30;99.90
41256;DHT22;26989;45.524;10.938;2024-03-08T10:34:29;10.30;99.90
41256;DHT22;26989;45.524;10.938;2024-03-08T10:37:03;10.50;99.90
41256;DHT22;26989;45.524;10.938;2024-03-08T10:39:36;10.10;99.90
41256;DHT22;26989;45.524;10.938;2024-03-08T10:42:14;10.00;99.90
41256;DHT22;26989;45.524;10.938;2024-03-08T10:47:30;10.20;99.90
41256;DHT22;26989;45.524;10.938;2024-03-08T10:50:20;10.20;99.90
41256;DHT22;26989;45.524;10.938;2024-03-08T10:52:57;10.00;99.90
41256;DHT22;26989;45.524;10.938;2024-03-08T10:55:40;9.90;99.90
41256;DHT22;26989;45.524;10.938;2024-03-08T10:58:10;10.00;99.90
41256;DHT22;26989;45.524;10.938;2024-03-08T11:00:42;10.00;99.90
41256;DHT22;26989;45.524;10.938;2024-03-08T11:08:49;9.90;99.90
41256;DHT22;26989;45.524;10.938;2024-03-08T11:14:02;9.80;99.90
41256;DHT22;26989;45.524;10.938;2024-03-08T11:21:43;9.80;99.90
41256;DHT22;26989;45.524;10.938;2024-03-08T11:24:13;9.80;99.90
41256;DHT22;26989;45.524;10.938;2024-03-08T11:26:45;9.80;99.90
41256;DHT22;26989;45.524;10.938;2024-03-08T11:32:14;10.00;99.90
41256;DHT22;26989;45.524;10.938;2024-03-08T11:34:49;10.20;99.90
41256;DHT22;26989;45.524;10.938;2024-03-08T11:37:21;10.20;99.90
41256;DHT22;26989;45.524;10.938;2024-03-08T11:39:52;9.90;99.90
41256;DHT22;26989;45.524;10.938;2024-03-08T11:42:26;10.10;99.90
41256;DHT22;26989;45.524;10.938;2024-03-08T11:44:59;10.40;99.90
41256;DHT22;26989;45.524;10.938;2024-03-08T11:47:29;10.40;99.90
41256;DHT22;26989;45.524;10.938;2024-03-08T11:50:01;10.30;99.90
41256;DHT22;26989;45.524;10.938;2024-03-08T11:52:36;10.60;99.90
41256;DHT22;26989;45.524;10.938;2024-03-08T11:55:09;10.70;99.90
41256;DHT22;26989;45.524;10.938;2024-03-08T11:57:39;10.50;99.90
41256;DHT22;26989;45.524;10.938;2024-03-08T12:00:15;10.30;99.90
41256;DHT22;26989;45.524;10.938;2024-03-08T12:03:06;10.20;99.90
41256;DHT22;26989;45.524;10.938;2024-03-08T12:05:41;10.30;99.90
41256;DHT22;26989;45.524;10.938;2024-03-08T12:08:11;10.50;99.90
41256;DHT22;26989;45.524;10.938;2024-03-08T12:10:45;10.50;99.90
41256;DHT22;26989;45.524;10.938;2024-03-08T12:13:16;10.50;99.90
41256;DHT22;26989;45.524;10.938;2024-03-08T12:15:51;10.40;99.90
41256;DHT22;26989;45.524;10.938;2024-03-08T12:18:25;10.30;99.90
41256;DHT22;26989;45.524;10.938;2024-03-08T12:21:10;10.20;99.90
41256;DHT22;26989;45.524;10.938;2024-03-08T12:23:38;10.50;99.90
41256;DHT22;26989;45.524;10.938;2024-03-08T12:26:15;10.30;99.90
41256;DHT22;26989;45.524;10.938;2024-03-08T12:28:45;10.90;99.90
41256;DHT22;26989;45.524;10.938;2024-03-08T12:31:16;11.10;99.90
41256;DHT22;26989;45.524;10.938;2024-03-08T12:33:54;11.00;99.90
41256;DHT22;26989;45.524;10.938;2024-03-08T12:36:25;10.90;99.90
41256;DHT22;26989;45.524;10.938;2024-03-08T12:38:54;10.70;99.90
41256;DHT22;26989;45.524;10.938;2024-03-08T12:41:27;11.00;99.90
41256;DHT22;26989;45.524;10.938;2024-03-08T12:43:55;11.00;99.90
41256;DHT22;26989;45.524;10.938;2024-03-08T12:46:23;11.00;99.90
41256;DHT22;26989;45.524;10.938;2024-03-08T12:48:55;11.80;99.90
41256;DHT22;26989;45.524;10.938;2024-03-08T12:51:25;12.30;99.90
41256;DHT22;26989;45.524;10.938;2024-03-08T12:54:15;12.20;99.90
41256;DHT22;26989;45.524;10.938;2024-03-08T12:56:44;12.30;99.90
41256;DHT22;26989;45.524;10.938;2024-03-08T12:59:19;11.30;99.90
41256;DHT22;26989;45.524;10.938;2024-03-08T13:01:49;11.40;99.90
41256;DHT22;26989;45.524;10.938;2024-03-08T13:04:20;11.00;99.90
41256;DHT22;26989;45.524;10.938;2024-03-08T13:06:50;10.70;99.90
41256;DHT22;26989;45.524;10.938;2024-03-08T13:09:22;10.80;99.90
41256;DHT22;26989;45.524;10.938;2024-03-08T13:11:51;10.90;99.90
41256;DHT22;26989;45.524;10.938;2024-03-08T13:14:26;11.30;99.90
41256;DHT22;26989;45.524;10.938;2024-03-08T13:16:55;11.20;99.90
41256;DHT22;26989;45.524;10.938;2024-03-08T13:19:25;11.00;99.90
41256;DHT22;26989;45.524;10.938;2024-03-08T13:21:54;10.70;99.90
41256;DHT22;26989;45.524;10.938;2024-03-08T13:24:25;11.10;99.90
41256;DHT22;26989;45.524;10.938;2024-03-08T13:26:57;10.90;99.90
41256;DHT22;26989;45.524;10.938;2024-03-08T13:29:26;10.80;99.90
41256;DHT22;26989;45.524;10.938;2024-03-08T13:32:00;11.30;99.90
41256;DHT22;26989;45.524;10.938;2024-03-08T13:34:28;11.40;99.90
41256;DHT22;26989;45.524;10.938;2024-03-08T13:36:59;11.70;99.90
41256;DHT22;26989;45.524;10.938;2024-03-08T13:39:27;11.70;99.90
41256;DHT22;26989;45.524;10.938;2024-03-08T13:42:02;12.10;99.90
41256;DHT22;26989;45.524;10.938;2024-03-08T13:44:34;12.10;99.90
41256;DHT22;26989;45.524;10.938;2024-03-08T13:47:02;12.00;99.90
41256;DHT22;26989;45.524;10.938;2024-03-08T13:49:37;11.90;99.90
41256;DHT22;26989;45.524;10.938;2024-03-08T13:52:10;11.80;99.90
41256;DHT22;26989;45.524;10.938;2024-03-08T13:54:43;11.90;99.90
41256;DHT22;26989;45.524;10.938;2024-03-08T13:57:20;12.10;99.90
41256;DHT22;26989;45.524;10.938;2024-03-08T14:00:03;12.20;99.90
41256;DHT22;26989;45.524;10.938;2024-03-08T14:02:45;11.10;99.90
41256;DHT22;26989;45.524;10.938;2024-03-08T14:05:17;11.00;99.90
41256;DHT22;26989;45.524;10.938;2024-03-08T14:07:54;11.50;99.90
41256;DHT22;26989;45.524;10.938;2024-03-08T14:10:49;11.60;99.90
41256;DHT22;26989;45.524;10.938;2024-03-08T14:13:43;11.50;99.90
41256;DHT22;26989;45.524;10.938;2024-03-08T14:16:15;10.90;99.90
41256;DHT22;26989;45.524;10.938;2024-03-08T14:18:47;10.80;99.90
41256;DHT22;26989;45.524;10.938;2024-03-08T14:21:24;10.80;99.90
41256;DHT22;26989;45.524;10.938;2024-03-08T14:23:58;10.60;99.90
41256;DHT22;26989;45.524;10.938;2024-03-08T14:26:25;10.60;99.90
41256;DHT22;26989;45.524;10.938;2024-03-08T14:28:55;10.90;99.90
41256;DHT22;26989;45.524;10.938;2024-03-08T14:31:26;10.90;99.90
41256;DHT22;26989;45.524;10.938;2024-03-08T14:34:08;10.70;99.90
41256;DHT22;26989;45.524;10.938;2024-03-08T14:36:42;10.70;99.90
41256;DHT22;26989;45.524;10.938;2024-03-08T14:39:12;10.70;99.90
41256;DHT22;26989;45.524;10.938;2024-03-08T14:41:55;10.80;99.90
41256;DHT22;26989;45.524;10.938;2024-03-08T14:44:27;10.60;99.90
41256;DHT22;26989;45.524;10.938;2024-03-08T14:47:02;10.70;99.90
41256;DHT22;26989;45.524;10.938;2024-03-08T14:49:48;10.80;99.90
41256;DHT22;26989;45.524;10.938;2024-03-08T14:52:26;11.00;99.90
41256;DHT22;26989;45.524;10.938;2024-03-08T14:54:56;10.70;99.90
41256;DHT22;26989;45.524;10.938;2024-03-08T14:57:26;10.80;99.90
41256;DHT22;26989;45.524;10.938;2024-03-08T14:59:56;10.70;99.90
41256;DHT22;26989;45.524;10.938;2024-03-08T15:02:25;11.10;99.90
41256;DHT22;26989;45.524;10.938;2024-03-08T15:04:54;11.00;99.90
41256;DHT22;26989;45.524;10.938;2024-03-08T15:07:29;11.30;99.90
41256;DHT22;26989;45.524;10.938;2024-03-08T15:10:10;11.80;99.90
41256;DHT22;26989;45.524;10.938;2024-03-08T15:13:03;12.10;99.90
41256;DHT22;26989;45.524;10.938;2024-03-08T15:16:11;11.40;99.90
41256;DHT22;26989;45.524;10.938;2024-03-08T15:18:48;11.20;99.90
41256;DHT22;26989;45.524;10.938;2024-03-08T15:21:22;11.40;99.90
41256;DHT22;26989;45.524;10.938;2024-03-08T15:23:55;10.80;99.90
41256;DHT22;26989;45.524;10.938;2024-03-08T15:26:37;10.70;99.90
41256;DHT22;26989;45.524;10.938;2024-03-08T15:29:03;11.00;99.90
41256;DHT22;26989;45.524;10.938;2024-03-08T15:31:41;11.20;99.90
41256;DHT22;26989;45.524;10.938;2024-03-08T15:34:13;11.00;99.90
41256;DHT22;26989;45.524;10.938;2024-03-08T15:36:45;10.90;99.90
41256;DHT22;26989;45.524;10.938;2024-03-08T15:39:40;10.90;99.90
41256;DHT22;26989;45.524;10.938;2024-03-08T15:42:16;10.70;99.90
41256;DHT22;26989;45.524;10.938;2024-03-08T15:44:52;10.60;99.90
41256;DHT22;26989;45.524;10.938;2024-03-08T15:47:27;10.60;99.90
41256;DHT22;26989;45.524;10.938;2024-03-08T15:50:00;10.60;99.90
41256;DHT22;26989;45.524;10.938;2024-03-08T15:52:30;10.70;99.90
41256;DHT22;26989;45.524;10.938;2024-03-08T15:55:00;10.70;99.90
41256;DHT22;26989;45.524;10.938;2024-03-08T16:00:26;10.70;99.90
41256;DHT22;26989;45.524;10.938;2024-03-08T16:03:08;10.70;99.90
41256;DHT22;26989;45.524;10.938;2024-03-08T16:05:39;10.70;99.90
41256;DHT22;26989;45.524;10.938;2024-03-08T16:08:17;10.70;99.90